createdAt,value
2018-04-19T00:00:37.960Z,5.53
2018-04-19T00:03:06.487Z,4.60
2018-04-19T00:05:39.873Z,4.67
2018-04-19T00:08:09.134Z,4.83
2018-04-19T00:10:43.195Z,4.67
2018-04-19T00:13:11.959Z,5.17
2018-04-19T00:15:44.528Z,5.33
2018-04-19T00:18:14.557Z,5.10
2018-04-19T00:20:48.128Z,5.07
2018-04-19T00:23:17.667Z,5.10
2018-04-19T00:25:51.069Z,5.53
2018-04-19T00:28:19.557Z,4.80
2018-04-19T00:30:53.489Z,5.33
2018-04-19T00:33:22.005Z,5.23
2018-04-19T00:35:55.473Z,5.77
2018-04-19T00:38:24.280Z,6.33
2018-04-19T00:40:58.309Z,5.20
2018-04-19T00:43:27.612Z,4.90
2018-04-19T00:46:01.042Z,5.50
2018-04-19T00:48:30.300Z,5.60
2018-04-19T00:51:03.669Z,4.60
2018-04-19T00:53:32.177Z,4.67
2018-04-19T00:56:07.433Z,4.67
2018-04-19T00:58:37.396Z,4.70
2018-04-19T01:01:18.725Z,5.10
2018-04-19T01:03:47.497Z,4.67
2018-04-19T01:06:17.152Z,5.07
2018-04-19T01:08:46.413Z,5.47
2018-04-19T01:11:15.203Z,5.00
2018-04-19T01:13:45.185Z,5.50
2018-04-19T01:16:16.504Z,5.03
2018-04-19T01:18:46.289Z,5.13
2018-04-19T01:21:18.889Z,5.40
2018-04-19T01:23:48.906Z,5.70
2018-04-19T01:26:29.757Z,5.47
2018-04-19T01:28:59.048Z,5.80
2018-04-19T01:31:29.333Z,5.73
2018-04-19T01:33:57.888Z,6.53
2018-04-19T01:36:27.911Z,6.87
2018-04-19T01:38:57.854Z,5.73
2018-04-19T01:41:28.035Z,6.67
2018-04-19T01:43:57.705Z,6.43
2018-04-19T01:46:30.306Z,6.40
2018-04-19T01:48:59.307Z,6.23
2018-04-19T01:51:31.782Z,6.80
2018-04-19T01:54:00.541Z,6.57
2018-04-19T01:56:33.105Z,7.20
2018-04-19T01:59:02.084Z,7.30
2018-04-19T02:01:35.003Z,6.97
2018-04-19T02:04:03.555Z,7.53
2018-04-19T02:06:32.049Z,6.90
2018-04-19T02:09:01.584Z,7.10
2018-04-19T02:11:30.100Z,7.87
2018-04-19T02:13:58.629Z,7.50
2018-04-19T02:16:28.400Z,7.30
2018-04-19T02:18:57.310Z,7.83
2018-04-19T02:21:26.562Z,6.63
2018-04-19T02:23:56.343Z,6.30
2018-04-19T02:26:24.858Z,7.30
2018-04-19T02:28:54.137Z,6.83
2018-04-19T02:31:23.668Z,6.27
2018-04-19T02:33:53.933Z,6.97
2018-04-19T02:36:22.458Z,6.63
2018-04-19T02:39:04.512Z,7.07
2018-04-19T02:41:33.050Z,6.20
2018-04-19T02:44:02.336Z,6.70
2018-04-19T02:46:32.236Z,7.37
2018-04-19T02:49:01.548Z,6.23
2018-04-19T02:51:30.046Z,6.87
2018-04-19T02:54:04.917Z,6.00
2018-04-19T02:56:33.457Z,6.30
2018-04-19T02:59:06.220Z,6.40
2018-04-19T03:01:35.417Z,6.73
2018-04-19T03:04:10.681Z,6.37
2018-04-19T03:06:40.065Z,6.87
2018-04-19T03:09:10.812Z,6.70
2018-04-19T03:11:40.077Z,6.70
2018-04-19T03:14:22.404Z,6.80
2018-04-19T03:16:52.025Z,6.50
2018-04-19T03:19:22.087Z,6.47
2018-04-19T03:21:52.101Z,7.47
2018-04-19T03:24:21.640Z,6.53
2018-04-19T03:26:50.140Z,6.80
2018-04-19T03:29:19.922Z,6.77
2018-04-19T03:31:48.703Z,6.43
2018-04-19T03:34:21.570Z,6.53
2018-04-19T03:36:51.952Z,6.87
2018-04-19T03:39:23.603Z,6.83
2018-04-19T03:41:53.648Z,7.50
2018-04-19T03:44:26.182Z,7.97
2018-04-19T03:46:54.989Z,7.40
2018-04-19T03:49:30.201Z,7.40
2018-04-19T03:51:58.708Z,8.27
2018-04-19T03:54:31.106Z,8.67
2018-04-19T03:57:00.377Z,7.17
2018-04-19T03:59:33.376Z,7.47
2018-04-19T04:02:03.287Z,7.53
2018-04-19T04:04:36.075Z,15.20
2018-04-19T04:07:05.883Z,8.00
2018-04-19T04:09:38.564Z,7.90
2018-04-19T04:12:07.460Z,8.17
2018-04-19T04:14:39.545Z,8.00
2018-04-19T04:19:21.824Z,6.67
2018-04-19T04:22:00.645Z,7.90
2018-04-19T04:24:29.930Z,7.10
2018-04-19T04:26:58.774Z,6.57
2018-04-19T04:29:27.272Z,7.03
2018-04-19T04:31:56.554Z,7.17
2018-04-19T04:34:25.447Z,7.93
2018-04-19T04:36:54.401Z,7.93
2018-04-19T04:39:23.305Z,7.47
2018-04-19T04:41:54.392Z,8.00
2018-04-19T04:44:24.058Z,7.83
2018-04-19T04:47:05.072Z,8.23
2018-04-19T04:49:34.345Z,8.00
2018-04-19T04:52:03.175Z,8.23
2018-04-19T04:54:31.681Z,7.70
2018-04-19T04:57:01.748Z,8.13
2018-04-19T04:59:31.853Z,7.93
2018-04-19T05:02:03.726Z,7.77
2018-04-19T05:04:32.244Z,8.57
2018-04-19T05:07:06.441Z,7.83
2018-04-19T05:09:36.485Z,10.40
2018-04-19T05:12:10.717Z,34.67
2018-04-19T05:14:39.674Z,21.80
2018-04-19T05:17:12.361Z,9.17
2018-04-19T05:19:41.634Z,7.13
2018-04-19T05:22:15.209Z,6.77
2018-04-19T05:24:43.719Z,7.40
2018-04-19T05:27:17.610Z,7.63
2018-04-19T05:29:46.905Z,6.83
2018-04-19T05:32:19.968Z,6.70
2018-04-19T05:34:49.257Z,7.07
2018-04-19T05:37:22.852Z,6.90
2018-04-19T05:39:51.792Z,8.00
2018-04-19T05:42:24.449Z,8.60
2018-04-19T05:44:53.262Z,7.03
2018-04-19T05:47:35.034Z,7.80
2018-04-19T05:50:05.265Z,6.90
2018-04-19T05:52:33.785Z,7.73
2018-04-19T05:55:02.332Z,6.53
2018-04-19T05:57:32.413Z,7.30
2018-04-19T06:00:02.057Z,7.03
2018-04-19T06:02:32.994Z,7.80
2018-04-19T06:05:02.286Z,8.10
2018-04-19T06:07:35.541Z,7.17
2018-04-19T06:10:05.126Z,7.17
2018-04-19T06:12:46.452Z,8.17
2018-04-19T06:15:16.066Z,8.63
2018-04-19T06:17:44.584Z,8.53
2018-04-19T06:20:13.116Z,9.90
2018-04-19T06:22:42.804Z,10.30
2018-04-19T06:25:12.333Z,9.03
2018-04-19T06:27:46.152Z,8.83
2018-04-19T06:30:15.889Z,8.93
2018-04-19T06:32:48.950Z,10.90
2018-04-19T06:35:17.551Z,10.37
2018-04-19T06:37:49.975Z,9.80
2018-04-19T06:40:18.943Z,8.10
2018-04-19T06:42:51.434Z,7.87
2018-04-19T06:45:20.612Z,9.23
2018-04-19T06:47:53.631Z,9.23
2018-04-19T06:50:22.944Z,8.87
2018-04-19T06:52:58.922Z,9.30
2018-04-19T06:55:27.432Z,8.53
2018-04-19T06:58:00.169Z,8.83
2018-04-19T07:00:29.503Z,8.60
2018-04-19T07:03:11.745Z,8.83
2018-04-19T07:05:40.253Z,9.80
2018-04-19T07:08:10.885Z,9.33
2018-04-19T07:10:39.391Z,9.40
2018-04-19T07:13:09.360Z,9.93
2018-04-19T07:15:38.947Z,8.90
2018-04-19T07:18:11.487Z,9.25
2018-04-19T07:20:40.013Z,9.13
2018-04-19T07:23:13.616Z,9.68
2018-04-19T07:25:42.140Z,8.98
2018-04-19T07:28:15.250Z,9.10
2018-04-19T07:30:44.045Z,9.48
2018-04-19T07:33:18.186Z,8.60
2018-04-19T07:35:47.127Z,10.57
2018-04-19T07:38:20.407Z,9.35
2018-04-19T07:40:48.977Z,9.45
2018-04-19T07:43:31.163Z,8.88
2018-04-19T07:45:59.802Z,8.65
2018-04-19T07:48:29.529Z,8.95
2018-04-19T07:50:58.100Z,9.10
2018-04-19T07:53:26.634Z,8.90
2018-04-19T07:55:56.481Z,8.77
2018-04-19T07:58:37.321Z,8.18
2018-04-19T08:01:06.261Z,9.10
2018-04-19T08:03:34.832Z,9.57
2018-04-19T08:06:03.748Z,9.20
2018-04-19T08:08:33.698Z,9.43
2018-04-19T08:11:02.238Z,8.75
2018-04-19T08:13:35.409Z,8.00
2018-04-19T08:16:04.354Z,8.07
2018-04-19T08:18:37.576Z,8.02
2018-04-19T08:21:06.843Z,8.02
2018-04-19T08:23:40.510Z,7.45
2018-04-19T08:26:09.093Z,7.95
2018-04-19T08:28:41.860Z,8.45
2018-04-19T08:31:10.852Z,7.65
2018-04-19T08:33:47.097Z,6.53
2018-04-19T08:36:15.645Z,6.70
2018-04-19T08:38:56.833Z,6.03
2018-04-19T08:41:26.474Z,6.12
2018-04-19T08:43:55.774Z,6.32
2018-04-19T08:46:24.326Z,6.25
2018-04-19T08:48:55.375Z,6.87
2018-04-19T08:51:25.426Z,5.65
2018-04-19T08:53:55.819Z,5.57
2018-04-19T08:56:25.470Z,5.40
2018-04-19T08:59:06.761Z,5.40
2018-04-19T09:01:36.158Z,6.07
2018-04-19T09:04:04.735Z,5.85
2018-04-19T09:06:33.246Z,5.85
2018-04-19T09:09:03.337Z,6.00
2018-04-19T09:11:32.275Z,6.60
2018-04-19T09:14:05.670Z,6.53
2018-04-19T09:16:35.279Z,5.78
2018-04-19T09:19:08.245Z,6.20
2018-04-19T09:21:37.228Z,6.12
2018-04-19T09:24:11.908Z,6.30
2018-04-19T09:26:40.434Z,5.53
2018-04-19T09:29:12.891Z,5.87
2018-04-19T09:31:42.162Z,7.13
2018-04-19T09:34:23.997Z,7.03
2018-04-19T09:36:53.462Z,6.73
2018-04-19T09:39:22.443Z,6.70
2018-04-19T09:41:52.134Z,6.83
2018-04-19T09:44:22.148Z,7.20
2018-04-19T09:46:53.728Z,6.37
2018-04-19T09:49:22.344Z,5.37
2018-04-19T09:51:51.925Z,6.40
2018-04-19T09:54:25.373Z,6.20
2018-04-19T09:56:55.764Z,6.30
2018-04-19T09:59:28.084Z,6.50
2018-04-19T10:02:01.763Z,5.70
2018-04-19T10:04:33.803Z,5.87
2018-04-19T10:07:02.445Z,6.57
2018-04-19T10:09:31.772Z,6.50
2018-04-19T10:12:00.399Z,6.17
2018-04-19T10:14:33.224Z,6.93
2018-04-19T10:17:02.248Z,7.13
2018-04-19T10:19:35.316Z,5.67
2018-04-19T10:22:03.874Z,5.90
2018-04-19T10:24:38.761Z,5.40
2018-04-19T10:27:07.404Z,5.00
2018-04-19T10:29:40.870Z,4.72
2018-04-19T10:32:10.165Z,4.73
2018-04-19T10:34:42.781Z,5.67
2018-04-19T10:37:12.182Z,5.20
2018-04-19T10:39:45.233Z,5.63
2018-04-19T10:42:13.842Z,5.70
2018-04-19T10:44:47.783Z,6.07
2018-04-19T10:47:17.691Z,5.75
2018-04-19T10:49:50.721Z,5.80
2018-04-19T10:52:20.365Z,5.47
2018-04-19T10:54:54.009Z,5.53
2018-04-19T10:57:23.285Z,5.80
2018-04-19T10:59:56.671Z,5.32
2018-04-19T11:02:25.717Z,5.70
2018-04-19T11:05:04.637Z,5.67
2018-04-19T11:07:33.248Z,5.30
2018-04-19T11:10:01.864Z,6.20
2018-04-19T11:12:30.581Z,5.50
2018-04-19T11:15:03.279Z,6.20
2018-04-19T11:17:32.939Z,5.80
2018-04-19T11:20:06.483Z,5.80
2018-04-19T11:22:35.076Z,5.70
2018-04-19T11:25:16.689Z,4.87
2018-04-19T11:27:46.629Z,5.63
2018-04-19T11:30:15.278Z,5.97
2018-04-19T11:32:44.614Z,5.37
2018-04-19T11:35:15.345Z,5.20
2018-04-19T11:37:43.872Z,4.90
2018-04-19T11:40:25.397Z,4.93
2018-04-19T11:42:55.658Z,5.05
2018-04-19T11:45:24.628Z,5.13
2018-04-19T11:47:55.088Z,4.80
2018-04-19T11:50:24.786Z,4.87
2018-04-19T11:52:55.008Z,5.00
2018-04-19T11:55:24.769Z,4.77
2018-04-19T11:57:55.739Z,5.12
2018-04-19T12:00:30.155Z,4.60
2018-04-19T12:02:59.161Z,4.75
2018-04-19T12:05:27.983Z,4.40
2018-04-19T12:07:57.256Z,4.60
2018-04-19T12:10:38.440Z,4.73
2018-04-19T12:13:07.423Z,4.15
2018-04-19T12:15:37.099Z,4.30
2018-04-19T12:18:07.181Z,3.60
2018-04-19T12:20:36.084Z,3.95
2018-04-19T12:23:05.525Z,4.72
2018-04-19T12:25:36.813Z,4.12
2018-04-19T12:28:05.573Z,4.35
2018-04-19T12:30:38.724Z,3.85
2018-04-19T12:33:08.113Z,4.03
2018-04-19T12:35:45.822Z,3.90
2018-04-19T12:38:15.157Z,3.80
2018-04-19T12:40:44.693Z,3.42
2018-04-19T12:43:13.504Z,3.37
2018-04-19T12:45:46.543Z,3.50
2018-04-19T12:48:15.252Z,4.57
2018-04-19T12:50:47.620Z,4.28
2018-04-19T12:53:16.897Z,3.47
2018-04-19T12:55:46.206Z,4.03
2018-04-19T12:58:20.229Z,3.60
2018-04-19T13:00:54.520Z,3.67
2018-04-19T13:03:23.096Z,4.37
2018-04-19T13:05:58.321Z,3.45
2018-04-19T13:08:27.228Z,3.30
2018-04-19T13:11:00.577Z,3.70
2018-04-19T13:13:29.379Z,3.40
2018-04-19T13:16:02.637Z,3.75
2018-04-19T13:18:31.210Z,4.05
2018-04-19T13:21:04.595Z,3.50
2018-04-19T13:23:33.117Z,2.80
2018-04-19T13:26:07.581Z,3.42
2018-04-19T13:28:36.348Z,2.85
2018-04-19T13:31:08.979Z,2.95
2018-04-19T13:33:37.516Z,2.80
2018-04-19T13:36:12.309Z,2.70
2018-04-19T13:38:42.353Z,3.33
2018-04-19T13:41:24.731Z,3.33
2018-04-19T13:43:54.265Z,3.40
2018-04-19T13:46:23.826Z,3.10
2018-04-19T13:48:52.337Z,3.03
2018-04-19T14:04:42.585Z,3.00
2018-04-19T14:07:12.636Z,3.40
2018-04-19T14:09:42.480Z,3.40
2018-04-19T14:12:11.022Z,3.70
2018-04-19T14:14:41.843Z,3.10
2018-04-19T14:17:10.657Z,3.25
2018-04-19T14:19:40.247Z,3.10
2018-04-19T14:22:09.773Z,3.42
2018-04-19T14:24:38.609Z,3.08
2018-04-19T14:27:08.155Z,3.20
2018-04-19T14:29:38.844Z,3.15
2018-04-19T14:32:07.674Z,3.05
2018-04-19T14:34:39.981Z,3.25
2018-04-19T14:37:09.306Z,3.20
2018-04-19T14:39:43.095Z,3.35
2018-04-19T14:42:12.664Z,3.50
2018-04-19T14:44:45.702Z,3.15
2018-04-19T14:47:14.510Z,3.03
2018-04-19T14:49:47.803Z,3.45
2018-04-19T14:52:17.177Z,3.25
2018-04-19T14:54:49.629Z,3.33
2018-04-19T14:57:18.199Z,3.00
2018-04-19T15:00:01.129Z,3.60
2018-04-19T15:02:31.117Z,3.40
2018-04-19T15:05:00.441Z,3.33
2018-04-19T15:07:28.975Z,3.70
2018-04-19T15:09:57.853Z,3.10
2018-04-19T15:12:27.136Z,3.37
2018-04-19T15:15:00.475Z,5.12
2018-04-19T15:17:29.406Z,4.18
2018-04-19T15:20:03.009Z,3.67
2018-04-19T15:22:32.306Z,3.22
2018-04-19T15:38:12.298Z,3.75
2018-04-19T15:40:41.284Z,3.70
2018-04-19T15:43:14.307Z,3.70
2018-04-19T15:45:44.358Z,3.85
2018-04-19T15:48:17.000Z,3.25
2018-04-19T15:50:45.789Z,3.15
2018-04-19T15:53:26.973Z,3.30
2018-04-19T15:55:56.093Z,3.78
2018-04-19T15:58:25.353Z,3.55
2018-04-19T16:00:54.299Z,4.45
2018-04-19T16:03:23.261Z,5.20
2018-04-19T16:05:52.280Z,6.37
2018-04-19T16:08:26.321Z,4.53
2018-04-19T16:10:55.520Z,3.67
2018-04-19T16:13:28.940Z,4.03
2018-04-19T16:15:57.478Z,3.47
2018-04-19T16:18:40.613Z,3.53
2018-04-19T16:21:09.162Z,4.00
2018-04-19T16:23:38.706Z,3.33
2018-04-19T16:26:08.276Z,3.50
2018-04-19T16:28:37.199Z,3.85
2018-04-19T16:31:07.500Z,4.07
2018-04-19T16:33:40.249Z,3.62
2018-04-19T16:36:08.795Z,3.22
2018-04-19T16:38:42.636Z,3.12
2018-04-19T16:41:12.172Z,3.42
2018-04-19T16:43:43.836Z,3.62
2018-04-19T16:46:13.430Z,3.78
2018-04-19T16:48:46.107Z,3.50
2018-04-19T16:51:15.638Z,3.33
2018-04-19T16:53:49.661Z,3.40
2018-04-19T16:56:19.735Z,3.60
2018-04-19T16:58:53.238Z,3.97
2018-04-19T17:01:22.425Z,3.75
2018-04-19T17:03:55.655Z,3.50
2018-04-19T17:06:24.240Z,3.28
2018-04-19T17:09:06.394Z,3.47
2018-04-19T17:11:35.305Z,4.60
2018-04-19T17:14:04.868Z,3.60
2018-04-19T17:16:34.498Z,3.53
2018-04-19T17:19:03.481Z,3.65
2018-04-19T17:21:32.785Z,4.00
2018-04-19T17:24:05.525Z,3.58
2018-04-19T17:26:34.049Z,3.73
2018-04-19T17:29:07.264Z,3.83
2018-04-19T17:31:36.208Z,3.97
2018-04-19T17:34:09.432Z,3.87
2018-04-19T17:36:39.095Z,4.03
2018-04-19T17:39:14.576Z,4.28
2018-04-19T17:41:43.483Z,4.00
2018-04-19T17:44:16.381Z,4.93
2018-04-19T17:46:46.156Z,3.60
2018-04-19T17:49:17.698Z,4.40
2018-04-19T17:51:47.337Z,4.47
2018-04-19T17:54:20.194Z,4.23
2018-04-19T17:56:49.870Z,3.73
2018-04-19T17:59:22.131Z,4.00
2018-04-19T18:01:50.960Z,4.07
2018-04-19T18:04:24.342Z,4.27
2018-04-19T18:06:53.056Z,4.30
2018-04-19T18:09:27.195Z,4.77
2018-04-19T18:11:57.242Z,4.90
2018-04-19T18:14:38.684Z,4.47
2018-04-19T18:17:08.710Z,4.80
2018-04-19T18:19:38.411Z,4.77
2018-04-19T18:22:07.351Z,6.23
2018-04-19T18:24:37.680Z,4.43
2018-04-19T18:27:07.357Z,3.73
2018-04-19T18:29:36.904Z,3.40
2018-04-19T18:32:06.698Z,4.53
2018-04-19T18:34:39.679Z,3.77
2018-04-19T18:37:09.712Z,4.00
2018-04-19T18:39:43.064Z,3.60
2018-04-19T18:42:12.361Z,3.03
2018-04-19T18:44:43.644Z,4.00
2018-04-19T18:47:12.477Z,3.97
2018-04-19T18:49:44.865Z,3.37
2018-04-19T18:52:14.547Z,4.13
2018-04-19T18:54:49.082Z,3.73
2018-04-19T18:57:17.690Z,3.60
2018-04-19T18:59:52.401Z,3.60
2018-04-19T19:02:22.921Z,3.97
2018-04-19T19:04:56.312Z,4.17
2018-04-19T19:07:24.901Z,4.20
2018-04-19T19:09:57.902Z,4.40
2018-04-19T19:12:29.036Z,4.90
2018-04-19T19:14:59.940Z,4.47
2018-04-19T19:19:41.091Z,5.90
2018-04-19T19:22:10.786Z,5.77
2018-04-19T19:24:40.549Z,5.07
2018-04-19T19:27:09.863Z,5.87
2018-04-19T19:29:39.149Z,5.30
2018-04-19T19:32:09.871Z,5.00
2018-04-19T19:34:38.805Z,5.03
2018-04-19T19:37:20.748Z,5.53
2018-04-19T19:39:49.556Z,4.90
2018-04-19T19:42:18.945Z,4.70
2018-04-19T19:44:47.526Z,4.77
2018-04-19T19:47:16.373Z,6.57
2018-04-19T19:49:45.666Z,4.50
2018-04-19T19:52:27.299Z,4.87
2018-04-19T19:54:56.508Z,5.10
2018-04-19T19:57:25.087Z,4.17
2018-04-19T19:59:54.505Z,4.50
2018-04-19T20:02:24.120Z,3.87
2018-04-19T20:04:52.681Z,3.77
2018-04-19T20:07:25.910Z,5.40
2018-04-19T20:09:55.509Z,4.50
2018-04-19T20:12:27.805Z,4.30
2018-04-19T20:14:57.788Z,5.10
2018-04-19T20:17:29.620Z,5.43
2018-04-19T20:19:58.165Z,4.47
2018-04-19T20:22:41.392Z,4.00
2018-04-19T20:25:10.957Z,3.73
2018-04-19T20:27:40.257Z,3.20
2018-04-19T20:30:08.828Z,4.17
2018-04-19T20:32:37.678Z,5.57
2018-04-19T20:35:07.352Z,5.03
2018-04-19T20:37:39.865Z,4.73
2018-04-19T20:40:08.767Z,4.93
2018-04-19T20:42:42.286Z,6.57
2018-04-19T20:45:10.839Z,5.27
2018-04-19T20:47:41.553Z,4.23
2018-04-19T20:50:13.290Z,4.10
2018-04-19T20:52:42.234Z,6.67
2018-04-19T20:55:12.072Z,4.33
2018-04-19T20:57:40.613Z,4.83
2018-04-19T21:00:09.141Z,4.30
2018-04-19T21:02:37.951Z,4.07
2018-04-19T21:05:07.237Z,4.27
2018-04-19T21:07:35.855Z,5.03
2018-04-19T21:10:04.756Z,4.37
2018-04-19T21:12:34.141Z,4.90
2018-04-19T21:15:11.299Z,4.63
2018-04-19T21:17:41.340Z,5.97
2018-04-19T21:20:14.913Z,5.50
2018-04-19T21:22:44.027Z,4.17
2018-04-19T21:25:18.121Z,3.87
2018-04-19T21:27:47.442Z,4.10
2018-04-19T21:30:19.588Z,5.27
2018-04-19T21:32:48.353Z,5.27
2018-04-19T21:35:22.092Z,4.33
2018-04-19T21:37:53.445Z,4.47
2018-04-19T21:40:24.074Z,4.07
2018-04-19T21:42:52.639Z,4.67
2018-04-19T21:45:35.679Z,4.47
2018-04-19T21:48:04.561Z,4.27
2018-04-19T21:50:33.864Z,4.67
2018-04-19T21:53:03.218Z,5.97
2018-04-19T21:55:33.025Z,4.53
2018-04-19T21:58:02.362Z,5.83
2018-04-19T22:00:34.455Z,5.47
2018-04-19T22:03:04.167Z,4.43
2018-04-19T22:05:38.014Z,4.60
2018-04-19T22:08:07.520Z,4.40
2018-04-19T22:10:38.636Z,4.57
2018-04-19T22:13:07.787Z,4.10
2018-04-19T22:15:40.770Z,4.17
2018-04-19T22:18:09.729Z,4.17
2018-04-19T22:20:43.741Z,4.33
2018-04-19T22:23:12.335Z,4.80
2018-04-19T22:25:46.664Z,4.60
2018-04-19T22:28:15.190Z,5.47
2018-04-19T22:30:48.233Z,5.43
2018-04-19T22:33:17.941Z,4.50
2018-04-19T22:35:51.200Z,5.20
2018-04-19T22:38:20.510Z,4.90
2018-04-19T22:41:02.329Z,4.77
2018-04-19T22:43:31.878Z,4.63
2018-04-19T22:46:00.685Z,4.37
2018-04-19T22:48:30.702Z,5.20
2018-04-19T22:51:01.629Z,4.57
2018-04-19T22:53:31.151Z,4.87
2018-04-19T22:56:02.826Z,5.43
2018-04-19T22:58:32.651Z,4.90
2018-04-19T23:01:04.788Z,4.97
2018-04-19T23:03:33.321Z,5.30
2018-04-19T23:06:16.081Z,5.67
2018-04-19T23:08:45.447Z,5.57
2018-04-19T23:11:13.945Z,6.30
2018-04-19T23:13:45.265Z,5.23
2018-04-19T23:16:13.820Z,5.63
2018-04-19T23:18:42.316Z,5.37
2018-04-19T23:21:14.937Z,6.70
2018-04-19T23:23:43.428Z,5.97
2018-04-19T23:26:16.838Z,6.17
2018-04-19T23:28:45.598Z,6.63
2018-04-19T23:31:18.545Z,6.13
2018-04-19T23:33:47.473Z,5.90
2018-04-19T23:36:30.193Z,6.37
2018-04-19T23:38:59.441Z,6.27
2018-04-19T23:41:27.976Z,6.37
2018-04-19T23:43:57.881Z,7.00
2018-04-19T23:46:26.425Z,6.70
2018-04-19T23:48:54.936Z,6.03
2018-04-19T23:51:28.068Z,5.73
2018-04-19T23:53:57.933Z,6.30
2018-04-19T23:56:30.360Z,6.23
2018-04-19T23:59:00.093Z,6.33
